createdAt,value
2018-11-05T00:00:06.318Z,0.00
2018-11-05T00:01:06.300Z,0.00
2018-11-05T00:02:06.281Z,0.00
2018-11-05T00:03:06.265Z,0.00
2018-11-05T00:04:06.244Z,0.00
2018-11-05T00:05:06.225Z,0.00
2018-11-05T00:06:06.205Z,0.00
2018-11-05T00:07:06.184Z,0.00
2018-11-05T00:08:06.166Z,0.00
2018-11-05T00:09:06.147Z,0.00
2018-11-05T00:10:06.127Z,0.00
2018-11-05T00:11:06.107Z,0.00
2018-11-05T00:12:06.096Z,0.00
2018-11-05T00:13:06.070Z,0.00
2018-11-05T00:14:06.052Z,0.00
2018-11-05T00:15:06.034Z,0.00
2018-11-05T00:16:06.011Z,0.00
2018-11-05T00:17:05.994Z,0.00
2018-11-05T00:18:05.974Z,0.00
2018-11-05T00:19:05.954Z,0.00
2018-11-05T00:20:05.937Z,0.00
2018-11-05T00:21:05.921Z,0.00
2018-11-05T00:22:05.896Z,0.00
2018-11-05T00:23:05.877Z,0.00
2018-11-05T00:24:05.860Z,0.00
2018-11-05T00:25:05.845Z,0.00
2018-11-05T00:26:05.823Z,0.00
2018-11-05T00:27:05.799Z,0.00
2018-11-05T00:28:05.785Z,0.00
2018-11-05T00:29:05.764Z,0.00
2018-11-05T00:30:05.744Z,0.00
2018-11-05T00:31:05.723Z,0.00
2018-11-05T00:32:05.705Z,0.00
2018-11-05T00:33:05.694Z,0.00
2018-11-05T00:34:05.669Z,0.00
2018-11-05T00:35:05.646Z,0.00
2018-11-05T00:36:05.633Z,0.00
2018-11-05T00:37:05.620Z,0.00
2018-11-05T00:38:05.593Z,0.00
2018-11-05T00:39:05.574Z,0.00
2018-11-05T00:40:05.556Z,0.00
2018-11-05T00:41:05.540Z,0.00
2018-11-05T00:42:05.513Z,0.00
2018-11-05T00:43:05.495Z,0.00
2018-11-05T00:44:05.474Z,0.00
2018-11-05T00:45:05.454Z,0.00
2018-11-05T00:46:05.436Z,0.00
2018-11-05T00:47:05.423Z,0.00
2018-11-05T00:48:05.398Z,0.00
2018-11-05T00:49:05.376Z,0.00
2018-11-05T00:50:05.357Z,0.00
2018-11-05T00:51:05.340Z,0.00
2018-11-05T00:52:05.321Z,0.00
2018-11-05T00:53:05.300Z,0.00
2018-11-05T00:54:05.282Z,0.00
2018-11-05T00:55:05.272Z,0.00
2018-11-05T00:56:05.246Z,0.00
2018-11-05T00:57:05.223Z,0.00
2018-11-05T00:58:05.201Z,0.00
2018-11-05T00:59:05.186Z,0.00
2018-11-05T01:00:05.164Z,0.00
2018-11-05T01:01:05.152Z,0.00
2018-11-05T01:02:05.125Z,0.00
2018-11-05T01:03:05.109Z,0.00
2018-11-05T01:04:05.087Z,0.00
2018-11-05T01:05:05.073Z,0.00
2018-11-05T01:06:05.048Z,0.00
2018-11-05T01:07:05.038Z,0.00
2018-11-05T01:08:05.008Z,0.00
2018-11-05T01:09:04.991Z,0.00
2018-11-05T01:10:04.975Z,0.00
2018-11-05T01:11:04.956Z,0.00
2018-11-05T01:12:04.933Z,0.00
2018-11-05T01:13:04.921Z,0.00
2018-11-05T01:14:04.893Z,0.00
2018-11-05T01:15:04.873Z,0.00
2018-11-05T01:16:04.854Z,0.00
2018-11-05T01:17:04.838Z,0.00
2018-11-05T01:18:04.822Z,0.00
2018-11-05T01:19:04.796Z,0.00
2018-11-05T01:20:04.776Z,0.00
2018-11-05T01:21:04.757Z,0.00
2018-11-05T01:22:04.736Z,0.00
2018-11-05T01:23:04.718Z,0.00
2018-11-05T01:24:04.699Z,0.00
2018-11-05T01:25:04.681Z,0.00
2018-11-05T01:26:04.668Z,0.00
2018-11-05T01:27:04.640Z,0.00
2018-11-05T01:28:04.622Z,0.00
2018-11-05T01:29:04.602Z,0.00
2018-11-05T01:30:04.581Z,0.00
2018-11-05T01:31:04.563Z,0.00
2018-11-05T01:32:04.553Z,0.00
2018-11-05T01:33:04.532Z,0.00
2018-11-05T01:34:04.505Z,0.00
2018-11-05T01:35:04.487Z,0.00
2018-11-05T01:36:04.469Z,0.00
2018-11-05T01:37:04.454Z,0.00
2018-11-05T01:38:04.432Z,0.00
2018-11-05T01:39:04.408Z,0.00
2018-11-05T01:40:04.387Z,0.00
2018-11-05T01:41:04.370Z,0.00
2018-11-05T01:42:04.355Z,0.00
2018-11-05T01:43:04.340Z,0.00
2018-11-05T01:44:04.313Z,0.00
2018-11-05T01:45:04.293Z,0.00
2018-11-05T01:46:04.273Z,0.00
2018-11-05T01:47:04.251Z,0.00
2018-11-05T01:48:04.242Z,0.00
2018-11-05T01:49:04.216Z,0.00
2018-11-05T01:50:04.201Z,0.00
2018-11-05T01:51:04.174Z,0.00
2018-11-05T01:52:04.154Z,0.00
2018-11-05T01:53:04.136Z,0.00
2018-11-05T01:54:04.117Z,0.00
2018-11-05T01:55:04.095Z,0.00
2018-11-05T01:56:04.074Z,0.00
2018-11-05T01:57:04.056Z,0.00
2018-11-05T01:58:04.035Z,0.00
2018-11-05T01:59:04.018Z,0.00
2018-11-05T02:00:04.010Z,0.00
2018-11-05T02:01:03.982Z,0.00
2018-11-05T02:02:03.958Z,0.00
2018-11-05T02:03:03.943Z,0.00
2018-11-05T02:04:03.921Z,0.00
2018-11-05T02:05:03.902Z,0.00
2018-11-05T02:06:03.881Z,0.00
2018-11-05T02:07:03.862Z,0.00
2018-11-05T02:08:03.844Z,0.00
2018-11-05T02:09:03.824Z,0.00
2018-11-05T02:10:03.824Z,0.00
2018-11-05T02:11:03.791Z,0.00
2018-11-05T02:12:03.767Z,0.00
2018-11-05T02:13:03.745Z,0.00
2018-11-05T02:14:03.727Z,0.00
2018-11-05T02:15:03.705Z,0.00
2018-11-05T02:16:03.792Z,0.00
2018-11-05T02:17:03.665Z,0.00
2018-11-05T02:18:03.647Z,0.00
2018-11-05T02:19:03.629Z,0.00
2018-11-05T02:20:03.609Z,0.00
2018-11-05T02:21:03.592Z,0.00
2018-11-05T02:22:03.569Z,0.00
2018-11-05T02:23:03.552Z,0.00
2018-11-05T02:24:03.531Z,0.00
2018-11-05T02:25:03.511Z,0.00
2018-11-05T02:26:03.499Z,0.00
2018-11-05T02:27:03.503Z,0.00
2018-11-05T02:28:03.452Z,0.00
2018-11-05T02:29:03.437Z,0.00
2018-11-05T02:30:03.413Z,0.00
2018-11-05T02:31:03.399Z,0.00
2018-11-05T02:32:03.374Z,0.00
2018-11-05T02:33:03.358Z,0.00
2018-11-05T02:34:03.333Z,0.00
2018-11-05T02:35:03.320Z,0.00
2018-11-05T02:36:03.300Z,0.00
2018-11-05T02:37:03.279Z,0.00
2018-11-05T02:38:03.261Z,0.00
2018-11-05T02:39:03.236Z,0.00
2018-11-05T02:40:03.229Z,0.00
2018-11-05T02:41:03.208Z,0.00
2018-11-05T02:42:03.179Z,0.00
2018-11-05T02:43:03.167Z,0.00
2018-11-05T02:44:03.143Z,0.00
2018-11-05T02:45:03.123Z,0.00
2018-11-05T02:46:03.103Z,0.00
2018-11-05T02:47:03.081Z,0.00
2018-11-05T02:48:03.064Z,0.00
2018-11-05T02:49:03.042Z,0.00
2018-11-05T02:50:03.024Z,0.00
2018-11-05T02:51:03.009Z,0.00
2018-11-05T02:52:02.987Z,0.00
2018-11-05T02:53:02.971Z,0.00
2018-11-05T02:54:02.953Z,0.00
2018-11-05T02:55:02.927Z,0.00
2018-11-05T02:56:02.909Z,0.00
2018-11-05T02:57:02.889Z,0.00
2018-11-05T02:58:02.872Z,0.00
2018-11-05T02:59:02.857Z,0.00
2018-11-05T03:00:02.829Z,0.00
2018-11-05T03:01:02.815Z,0.00
2018-11-05T03:02:02.789Z,0.00
2018-11-05T03:03:02.874Z,0.00
2018-11-05T03:04:02.754Z,0.00
2018-11-05T03:05:02.734Z,0.00
2018-11-05T03:06:02.720Z,0.00
2018-11-05T03:07:02.694Z,0.00
2018-11-05T03:08:02.673Z,0.00
2018-11-05T03:09:02.655Z,0.00
2018-11-05T03:10:02.632Z,0.00
2018-11-05T03:11:02.620Z,0.00
2018-11-05T03:12:02.596Z,0.00
2018-11-05T03:13:02.576Z,0.00
2018-11-05T03:14:02.556Z,0.00
2018-11-05T03:15:02.566Z,0.00
2018-11-05T03:16:02.518Z,0.00
2018-11-05T03:17:02.505Z,0.00
2018-11-05T03:18:02.481Z,0.00
2018-11-05T03:19:02.459Z,0.00
2018-11-05T03:20:02.438Z,0.00
2018-11-05T03:21:02.427Z,0.00
2018-11-05T03:22:02.399Z,0.00
2018-11-05T03:23:02.388Z,0.00
2018-11-05T03:24:02.360Z,0.00
2018-11-05T03:25:02.348Z,0.00
2018-11-05T03:26:02.323Z,0.00
2018-11-05T03:27:02.302Z,0.00
2018-11-05T03:28:02.287Z,0.00
2018-11-05T03:29:02.262Z,0.00
2018-11-05T03:30:02.248Z,0.00
2018-11-05T03:31:02.223Z,0.00
2018-11-05T03:32:02.207Z,0.00
2018-11-05T03:33:02.186Z,0.00
2018-11-05T03:34:02.166Z,0.00
2018-11-05T03:35:02.150Z,0.00
2018-11-05T03:36:02.220Z,0.00
2018-11-05T03:37:02.113Z,0.00
2018-11-05T03:38:02.089Z,0.00
2018-11-05T03:39:02.073Z,0.00
2018-11-05T03:40:02.052Z,0.00
2018-11-05T03:41:02.032Z,0.00
2018-11-05T03:42:02.015Z,0.00
2018-11-05T03:43:01.996Z,0.00
2018-11-05T03:44:01.973Z,0.00
2018-11-05T03:45:01.953Z,0.00
2018-11-05T03:46:01.936Z,0.00
2018-11-05T03:47:01.915Z,0.00
2018-11-05T03:48:01.895Z,0.00
2018-11-05T03:49:01.876Z,0.00
2018-11-05T03:50:01.856Z,0.00
2018-11-05T03:51:01.841Z,0.00
2018-11-05T03:52:01.814Z,0.00
2018-11-05T03:53:01.798Z,0.00
2018-11-05T03:54:01.778Z,0.00
2018-11-05T03:55:01.762Z,0.00
2018-11-05T03:56:01.862Z,0.00
2018-11-05T03:57:01.729Z,0.00
2018-11-05T03:58:01.694Z,0.00
2018-11-05T03:59:01.676Z,0.00
2018-11-05T04:00:01.664Z,0.00
2018-11-05T04:01:01.639Z,0.00
2018-11-05T04:02:01.617Z,0.00
2018-11-05T04:03:01.615Z,0.00
2018-11-05T04:04:01.584Z,0.00
2018-11-05T04:05:01.558Z,0.00
2018-11-05T04:06:01.552Z,0.00
2018-11-05T04:07:01.520Z,0.00
2018-11-05T04:08:01.499Z,0.00
2018-11-05T04:09:01.480Z,0.00
2018-11-05T04:10:01.470Z,0.00
2018-11-05T04:11:01.441Z,0.00
2018-11-05T04:12:01.421Z,0.00
2018-11-05T04:13:01.403Z,0.00
2018-11-05T04:14:01.381Z,0.00
2018-11-05T04:15:01.364Z,0.00
2018-11-05T04:16:01.454Z,0.00
2018-11-05T04:17:01.325Z,0.00
2018-11-05T04:18:01.305Z,0.00
2018-11-05T04:19:01.283Z,0.00
2018-11-05T04:20:01.263Z,0.00
2018-11-05T04:21:01.250Z,0.00
2018-11-05T04:22:01.226Z,0.00
2018-11-05T04:23:01.203Z,0.00
2018-11-05T04:24:01.207Z,0.00
2018-11-05T04:25:01.167Z,0.00
2018-11-05T04:26:01.148Z,0.00
2018-11-05T04:27:01.124Z,0.00
2018-11-05T04:28:01.205Z,0.00
2018-11-05T04:29:01.096Z,0.00
2018-11-05T04:30:01.084Z,0.00
2018-11-05T04:31:01.047Z,0.00
2018-11-05T04:32:01.030Z,0.00
2018-11-05T04:33:01.011Z,0.00
2018-11-05T04:34:00.987Z,0.00
2018-11-05T04:35:00.974Z,0.00
2018-11-05T04:36:00.950Z,0.00
2018-11-05T04:37:00.931Z,0.00
2018-11-05T04:38:00.914Z,0.00
2018-11-05T04:39:00.889Z,0.00
2018-11-05T04:40:00.872Z,0.00
2018-11-05T04:41:00.852Z,0.00
2018-11-05T04:42:00.831Z,0.00
2018-11-05T04:43:00.816Z,0.00
2018-11-05T04:44:00.796Z,0.00
2018-11-05T04:45:00.777Z,0.00
2018-11-05T04:46:00.752Z,0.00
2018-11-05T04:47:00.733Z,0.00
2018-11-05T04:48:00.715Z,0.00
2018-11-05T04:49:00.696Z,0.00
2018-11-05T04:50:00.677Z,0.00
2018-11-05T04:51:00.654Z,0.00
2018-11-05T04:52:00.634Z,0.00
2018-11-05T04:53:00.616Z,0.00
2018-11-05T04:54:00.596Z,0.00
2018-11-05T04:55:00.573Z,0.00
2018-11-05T04:56:00.557Z,0.00
2018-11-05T04:57:00.539Z,0.00
2018-11-05T04:58:00.518Z,0.00
2018-11-05T04:59:00.496Z,0.00
2018-11-05T05:00:00.477Z,0.00
2018-11-05T05:01:00.456Z,0.00
2018-11-05T05:02:00.436Z,0.00
2018-11-05T05:03:00.419Z,0.00
2018-11-05T05:04:00.397Z,0.00
2018-11-05T05:05:00.387Z,0.00
2018-11-05T05:06:00.365Z,0.00
2018-11-05T05:07:00.338Z,0.00
2018-11-05T05:08:00.327Z,0.00
2018-11-05T05:09:00.302Z,0.00
2018-11-05T05:10:00.279Z,0.00
2018-11-05T05:11:00.256Z,0.00
2018-11-05T05:12:00.238Z,0.00
2018-11-05T05:13:00.219Z,0.00
2018-11-05T05:14:00.196Z,0.00
2018-11-05T05:15:00.189Z,0.00
2018-11-05T05:16:00.183Z,0.00
2018-11-05T05:17:00.140Z,0.00
2018-11-05T05:18:00.120Z,0.00
2018-11-05T05:19:00.102Z,0.00
2018-11-05T05:20:00.081Z,0.00
2018-11-05T05:21:00.063Z,0.00
2018-11-05T05:22:00.038Z,0.00
2018-11-05T05:23:00.244Z,0.00
2018-11-05T05:24:00.011Z,0.00
2018-11-05T05:24:59.985Z,0.00
2018-11-05T05:25:59.962Z,0.00
2018-11-05T05:26:59.952Z,0.00
2018-11-05T05:27:59.925Z,0.00
2018-11-05T05:28:59.903Z,0.00
2018-11-05T05:29:59.884Z,0.00
2018-11-05T05:30:59.863Z,0.00
2018-11-05T05:31:59.844Z,0.00
2018-11-05T05:32:59.898Z,0.00
2018-11-05T05:33:59.804Z,0.00
2018-11-05T05:34:59.781Z,0.00
2018-11-05T05:35:59.771Z,0.00
2018-11-05T05:36:59.742Z,0.00
2018-11-05T05:37:59.722Z,0.00
2018-11-05T05:38:59.709Z,0.00
2018-11-05T05:39:59.686Z,0.00
2018-11-05T05:40:59.823Z,0.00
2018-11-05T05:41:59.645Z,0.00
2018-11-05T05:42:59.631Z,0.00
2018-11-05T05:43:59.606Z,0.00
2018-11-05T05:44:59.589Z,0.00
2018-11-05T05:45:59.566Z,0.00
2018-11-05T05:46:59.549Z,0.00
2018-11-05T05:47:59.536Z,0.00
2018-11-05T05:48:59.515Z,0.00
2018-11-05T05:49:59.531Z,0.00
2018-11-05T05:50:59.471Z,0.00
2018-11-05T05:51:59.446Z,0.00
2018-11-05T05:52:59.430Z,0.00
2018-11-05T05:53:59.411Z,0.00
2018-11-05T05:54:59.390Z,0.00
2018-11-05T05:55:59.378Z,0.00
2018-11-05T05:56:59.354Z,0.00
2018-11-05T05:57:59.328Z,0.00
2018-11-05T05:58:59.313Z,0.00
2018-11-05T05:59:59.391Z,0.00
2018-11-05T06:00:59.272Z,0.00
2018-11-05T06:01:59.249Z,0.00
2018-11-05T06:02:59.229Z,0.00
2018-11-05T06:03:59.212Z,0.00
2018-11-05T06:04:59.201Z,0.00
2018-11-05T06:05:59.248Z,0.00
2018-11-05T06:06:59.156Z,0.00
2018-11-05T06:07:59.134Z,0.00
2018-11-05T06:08:59.121Z,0.00
2018-11-05T06:09:59.092Z,4.00
2018-11-05T06:10:59.078Z,4.00
2018-11-05T06:11:59.055Z,0.00
2018-11-05T06:12:59.036Z,0.00
2018-11-05T06:13:59.013Z,4.00
2018-11-05T06:14:58.996Z,4.00
2018-11-05T06:15:59.092Z,8.00
2018-11-05T06:16:58.958Z,4.00
2018-11-05T06:17:58.946Z,4.00
2018-11-05T06:18:58.917Z,4.00
2018-11-05T06:19:58.896Z,8.00
2018-11-05T06:20:58.878Z,8.00
2018-11-05T06:21:58.888Z,12.00
2018-11-05T06:22:58.839Z,12.00
2018-11-05T06:23:58.824Z,16.00
2018-11-05T06:24:58.801Z,16.00
2018-11-05T06:25:58.777Z,20.00
2018-11-05T06:26:58.762Z,20.00
2018-11-05T06:27:58.741Z,20.00
2018-11-05T06:28:58.723Z,24.00
2018-11-05T06:29:58.702Z,24.00
2018-11-05T06:30:58.693Z,28.00
2018-11-05T06:31:58.663Z,28.00
2018-11-05T06:32:58.656Z,32.00
2018-11-05T06:33:58.626Z,32.00
2018-11-05T06:34:58.606Z,36.00
2018-11-05T06:35:58.589Z,36.00
2018-11-05T06:36:58.566Z,44.00
2018-11-05T06:37:58.552Z,48.00
2018-11-05T06:38:58.527Z,48.00
2018-11-05T06:39:58.511Z,48.00
2018-11-05T06:40:58.542Z,48.00
2018-11-05T06:41:58.652Z,52.00
2018-11-05T06:42:58.454Z,56.00
2018-11-05T06:43:58.453Z,60.00
2018-11-05T06:44:58.529Z,64.00
2018-11-05T06:45:58.396Z,72.00
2018-11-05T06:46:58.373Z,76.00
2018-11-05T06:47:58.352Z,80.00
2018-11-05T06:48:58.464Z,88.00
2018-11-05T06:49:58.317Z,100.00
2018-11-05T06:50:58.298Z,104.00
2018-11-05T06:51:58.283Z,116.00
2018-11-05T06:52:58.437Z,124.00
2018-11-05T06:53:58.241Z,136.00
2018-11-05T06:54:58.232Z,152.00
2018-11-05T06:55:58.200Z,160.00
2018-11-05T06:56:58.186Z,172.00
2018-11-05T06:57:58.163Z,176.00
2018-11-05T06:58:58.141Z,180.00
2018-11-05T06:59:58.125Z,200.00
2018-11-05T07:00:58.102Z,200.00
2018-11-05T07:01:58.095Z,208.00
2018-11-05T07:02:58.072Z,224.00
2018-11-05T07:03:58.053Z,232.00
2018-11-05T07:04:58.031Z,240.00
2018-11-05T07:05:58.150Z,256.00
2018-11-05T07:06:57.992Z,256.00
2018-11-05T07:07:57.970Z,264.00
2018-11-05T07:08:57.956Z,260.00
2018-11-05T07:09:58.031Z,264.00
2018-11-05T07:10:57.913Z,260.00
2018-11-05T07:11:57.901Z,260.00
2018-11-05T07:12:57.879Z,264.00
2018-11-05T07:13:57.859Z,260.00
2018-11-05T07:14:57.835Z,264.00
2018-11-05T07:15:57.827Z,276.00
2018-11-05T07:16:57.800Z,276.00
2018-11-05T07:17:57.779Z,284.00
2018-11-05T07:18:58.160Z,308.00
2018-11-05T07:19:57.743Z,312.00
2018-11-05T07:20:57.726Z,336.00
2018-11-05T07:21:57.704Z,352.00
2018-11-05T07:22:57.690Z,360.00
2018-11-05T07:23:57.667Z,344.00
2018-11-05T07:24:57.648Z,332.00
2018-11-05T07:25:57.636Z,336.00
2018-11-05T07:26:57.609Z,352.00
2018-11-05T07:27:57.596Z,344.00
2018-11-05T07:28:57.572Z,340.00
2018-11-05T07:29:57.550Z,340.00
2018-11-05T07:30:57.535Z,348.00
2018-11-05T07:31:57.519Z,348.00
2018-11-05T07:32:57.498Z,340.00
2018-11-05T07:33:57.715Z,352.00
2018-11-05T07:34:57.462Z,356.00
2018-11-05T07:35:57.446Z,372.00
2018-11-05T07:36:57.430Z,372.00
2018-11-05T07:37:57.400Z,388.00
2018-11-05T07:38:57.394Z,408.00
2018-11-05T07:39:57.364Z,420.00
2018-11-05T07:40:57.346Z,404.00
2018-11-05T07:41:57.327Z,392.00
2018-11-05T07:42:57.309Z,412.00
2018-11-05T07:43:57.291Z,436.00
2018-11-05T07:44:57.277Z,432.00
2018-11-05T07:45:57.259Z,440.00
2018-11-05T07:46:57.236Z,460.00
2018-11-05T07:47:57.223Z,480.00
2018-11-05T07:48:57.197Z,508.00
2018-11-05T07:49:57.188Z,528.00
2018-11-05T07:50:57.160Z,544.00
2018-11-05T07:51:57.148Z,548.00
2018-11-05T07:52:57.127Z,552.00
2018-11-05T07:53:57.106Z,552.00
2018-11-05T07:54:57.085Z,548.00
2018-11-05T07:55:57.082Z,552.00
2018-11-05T07:56:57.068Z,572.00
2018-11-05T07:57:57.031Z,584.00
2018-11-05T07:58:57.011Z,572.00
2018-11-05T07:59:56.991Z,564.00
2018-11-05T08:00:56.971Z,572.00
2018-11-05T08:01:56.962Z,576.00
2018-11-05T08:02:57.085Z,588.00
2018-11-05T08:03:56.915Z,608.00
2018-11-05T08:04:56.902Z,620.00
2018-11-05T08:05:56.877Z,628.00
2018-11-05T08:06:56.858Z,636.00
2018-11-05T08:07:56.842Z,660.00
2018-11-05T08:08:56.823Z,684.00
2018-11-05T08:09:56.807Z,688.00
2018-11-05T08:10:56.794Z,696.00
2018-11-05T08:11:56.768Z,716.00
2018-11-05T08:12:56.751Z,760.00
2018-11-05T08:13:56.732Z,780.00
2018-11-05T08:14:56.712Z,828.00
2018-11-05T08:15:56.698Z,848.00
2018-11-05T08:16:56.681Z,896.00
2018-11-05T08:17:56.666Z,952.00
2018-11-05T08:18:56.636Z,968.00
2018-11-05T08:19:56.629Z,984.00
2018-11-05T08:20:56.598Z,1024.00
2018-11-05T08:21:56.580Z,1096.00
2018-11-05T08:22:56.563Z,1136.00
2018-11-05T08:23:56.543Z,1200.00
2018-11-05T08:24:56.525Z,1168.00
2018-11-05T08:25:56.505Z,1140.00
2018-11-05T08:26:56.492Z,1156.00
2018-11-05T08:27:56.472Z,1192.00
2018-11-05T08:28:56.450Z,1216.00
2018-11-05T08:29:56.432Z,1252.00
2018-11-05T08:30:56.414Z,1380.00
2018-11-05T08:31:56.421Z,1452.00
2018-11-05T08:32:56.376Z,1512.00
2018-11-05T08:33:56.358Z,1620.00
2018-11-05T08:34:56.339Z,1804.00
2018-11-05T08:35:56.320Z,1936.00
2018-11-05T08:36:56.304Z,2304.00
2018-11-05T08:37:56.284Z,2544.00
2018-11-05T08:38:56.268Z,2684.00
2018-11-05T08:39:56.260Z,2800.00
2018-11-05T08:40:56.231Z,2632.00
2018-11-05T08:41:56.217Z,2552.00
2018-11-05T08:42:56.200Z,2644.00
2018-11-05T08:43:56.175Z,2508.00
2018-11-05T08:44:56.159Z,2512.00
2018-11-05T08:45:56.140Z,2664.00
2018-11-05T08:46:56.139Z,2784.00
2018-11-05T08:47:56.105Z,2988.00
2018-11-05T08:48:56.085Z,2936.00
2018-11-05T08:49:56.120Z,2808.00
2018-11-05T08:50:56.098Z,3044.00
2018-11-05T08:51:56.190Z,3176.00
2018-11-05T08:52:56.023Z,3448.00
2018-11-05T08:53:56.042Z,3760.00
2018-11-05T08:54:55.981Z,3440.00
2018-11-05T08:55:55.965Z,3064.00
2018-11-05T08:56:55.944Z,3184.00
2018-11-05T08:57:55.926Z,2808.00
2018-11-05T08:58:55.909Z,2708.00
2018-11-05T08:59:55.893Z,2500.00
2018-11-05T09:00:55.952Z,2552.00
2018-11-05T09:01:55.862Z,2592.00
2018-11-05T09:02:55.841Z,2436.00
2018-11-05T09:03:55.823Z,2504.00
2018-11-05T09:04:55.902Z,2516.00
2018-11-05T09:05:55.791Z,2544.00
2018-11-05T09:06:55.769Z,2560.00
2018-11-05T09:07:55.751Z,2364.00
2018-11-05T09:08:55.735Z,2260.00
2018-11-05T09:09:55.869Z,2016.00
2018-11-05T09:10:56.301Z,1880.00
2018-11-05T09:11:55.753Z,1996.00
2018-11-05T09:12:55.664Z,2156.00
2018-11-05T09:13:55.651Z,2108.00
2018-11-05T09:14:55.639Z,1952.00
2018-11-05T09:15:55.661Z,1964.00
2018-11-05T09:16:55.594Z,2024.00
2018-11-05T09:17:55.618Z,2060.00
2018-11-05T09:18:55.557Z,2076.00
2018-11-05T09:19:55.544Z,2132.00
2018-11-05T09:20:55.665Z,2100.00
2018-11-05T09:21:55.510Z,1932.00
2018-11-05T09:22:55.490Z,2108.00
2018-11-05T09:23:55.471Z,2336.00
2018-11-05T09:24:55.455Z,2596.00
2018-11-05T09:25:55.436Z,2444.00
2018-11-05T09:26:55.420Z,2356.00
2018-11-05T09:27:55.480Z,2196.00
2018-11-05T09:28:55.389Z,2164.00
2018-11-05T09:29:55.366Z,2188.00
2018-11-05T09:30:55.350Z,2052.00
2018-11-05T09:31:55.334Z,1988.00
2018-11-05T09:32:55.314Z,1804.00
2018-11-05T09:33:55.296Z,1752.00
2018-11-05T09:34:55.288Z,1776.00
2018-11-05T09:35:55.260Z,1764.00
2018-11-05T09:36:55.245Z,1760.00
2018-11-05T09:37:55.225Z,1632.00
2018-11-05T09:38:55.216Z,1504.00
2018-11-05T09:39:55.191Z,1420.00
2018-11-05T09:40:55.173Z,1400.00
2018-11-05T09:41:55.157Z,1388.00
2018-11-05T09:42:55.226Z,1300.00
2018-11-05T09:43:55.123Z,1228.00
2018-11-05T09:44:55.107Z,1240.00
2018-11-05T09:45:55.096Z,1268.00
2018-11-05T09:46:55.069Z,1312.00
2018-11-05T09:47:55.057Z,1384.00
2018-11-05T09:48:55.044Z,1404.00
2018-11-05T09:49:55.017Z,1412.00
2018-11-05T09:50:54.996Z,1596.00
2018-11-05T09:51:54.979Z,1756.00
2018-11-05T09:52:54.960Z,1816.00
2018-11-05T09:53:54.951Z,1704.00
2018-11-05T09:54:54.930Z,1612.00
2018-11-05T09:55:54.916Z,1640.00
2018-11-05T09:56:54.897Z,1804.00
2018-11-05T09:57:54.870Z,1780.00
2018-11-05T09:58:54.858Z,1660.00
2018-11-05T09:59:54.846Z,1640.00
2018-11-05T10:00:54.821Z,1684.00
2018-11-05T10:01:54.802Z,1768.00
2018-11-05T10:02:55.032Z,1820.00
2018-11-05T10:03:54.818Z,1796.00
2018-11-05T10:04:54.994Z,1756.00
2018-11-05T10:05:54.735Z,1728.00
2018-11-05T10:06:54.713Z,1684.00
2018-11-05T10:07:54.696Z,1724.00
2018-11-05T10:08:54.689Z,1724.00
2018-11-05T10:09:54.659Z,1648.00
2018-11-05T10:10:54.708Z,1756.00
2018-11-05T10:11:54.622Z,1772.00
2018-11-05T10:12:54.606Z,1812.00
2018-11-05T10:13:54.590Z,1864.00
2018-11-05T10:14:54.573Z,1928.00
2018-11-05T10:15:54.551Z,1896.00
2018-11-05T10:16:54.532Z,1796.00
2018-11-05T10:17:54.518Z,1768.00
2018-11-05T10:18:54.497Z,1800.00
2018-11-05T10:19:54.486Z,1776.00
2018-11-05T10:20:54.462Z,1848.00
2018-11-05T10:21:54.447Z,1872.00
2018-11-05T10:22:54.430Z,1968.00
2018-11-05T10:23:54.410Z,1932.00
2018-11-05T10:24:54.518Z,1876.00
2018-11-05T10:25:54.377Z,1956.00
2018-11-05T10:26:54.360Z,2048.00
2018-11-05T10:27:54.338Z,2020.00
2018-11-05T10:28:54.334Z,2000.00
2018-11-05T10:29:54.303Z,2032.00
2018-11-05T10:30:54.286Z,2028.00
2018-11-05T10:31:54.270Z,2092.00
2018-11-05T10:32:54.322Z,2076.00
2018-11-05T10:33:54.235Z,1868.00
2018-11-05T10:34:54.217Z,1880.00
2018-11-05T10:35:54.201Z,1852.00
2018-11-05T10:36:54.185Z,1784.00
2018-11-05T10:37:54.165Z,1748.00
2018-11-05T10:38:54.148Z,1740.00
2018-11-05T10:39:54.140Z,1820.00
2018-11-05T10:40:54.111Z,1764.00
2018-11-05T10:41:54.094Z,1708.00
2018-11-05T10:42:54.077Z,1732.00
2018-11-05T10:43:54.083Z,1852.00
2018-11-05T10:44:54.044Z,1908.00
2018-11-05T10:45:54.025Z,2032.00
2018-11-05T10:46:54.012Z,2204.00
2018-11-05T10:47:53.990Z,2292.00
2018-11-05T10:48:53.970Z,2364.00
2018-11-05T10:49:53.957Z,2324.00
2018-11-05T10:50:53.951Z,2292.00
2018-11-05T10:51:53.971Z,2324.00
2018-11-05T10:52:53.902Z,2220.00
2018-11-05T10:53:53.887Z,2184.00
2018-11-05T10:54:53.866Z,2224.00
2018-11-05T10:55:53.848Z,2304.00
2018-11-05T10:56:53.887Z,2232.00
2018-11-05T10:57:53.859Z,2096.00
2018-11-05T10:58:53.799Z,1996.00
2018-11-05T10:59:53.795Z,1876.00
2018-11-05T11:00:53.767Z,1952.00
2018-11-05T11:01:53.746Z,2172.00
2018-11-05T11:02:55.144Z,2208.00
2018-11-05T11:03:53.803Z,2096.00
2018-11-05T11:04:53.695Z,2060.00
2018-11-05T11:05:53.694Z,2076.00
2018-11-05T11:06:53.665Z,2148.00
2018-11-05T11:07:53.646Z,2180.00
2018-11-05T11:08:53.635Z,2092.00
2018-11-05T11:09:53.610Z,2036.00
2018-11-05T11:10:53.601Z,1992.00
2018-11-05T11:11:53.573Z,2140.00
2018-11-05T11:12:53.562Z,2136.00
2018-11-05T11:13:53.541Z,2152.00
2018-11-05T11:14:53.539Z,2076.00
2018-11-05T11:15:53.508Z,2028.00
2018-11-05T11:16:53.489Z,2084.00
2018-11-05T11:17:53.472Z,2076.00
2018-11-05T11:18:53.463Z,1984.00
2018-11-05T11:19:53.444Z,2004.00
2018-11-05T11:20:53.428Z,2036.00
2018-11-05T11:21:53.448Z,2096.00
2018-11-05T11:22:53.394Z,2084.00
2018-11-05T11:23:53.372Z,2168.00
2018-11-05T11:24:53.354Z,2308.00
2018-11-05T11:25:53.948Z,2420.00
2018-11-05T11:26:53.318Z,2428.00
2018-11-05T11:27:53.403Z,2380.00
2018-11-05T11:28:53.475Z,2312.00
2018-11-05T11:29:53.275Z,2276.00
2018-11-05T11:30:53.257Z,2368.00
2018-11-05T11:31:53.249Z,2492.00
2018-11-05T11:32:53.224Z,2596.00
2018-11-05T11:33:53.203Z,2664.00
2018-11-05T11:34:53.184Z,2712.00
2018-11-05T11:35:53.169Z,2604.00
2018-11-05T11:36:53.214Z,2532.00
2018-11-05T11:37:53.145Z,2536.00
2018-11-05T11:38:53.125Z,2560.00
2018-11-05T11:39:53.101Z,2416.00
2018-11-05T11:40:53.090Z,2360.00
2018-11-05T11:41:53.076Z,2480.00
2018-11-05T11:42:53.053Z,2424.00
2018-11-05T11:43:53.064Z,2520.00
2018-11-05T11:44:53.142Z,2720.00
2018-11-05T11:45:53.034Z,2716.00
2018-11-05T11:46:52.990Z,2680.00
2018-11-05T11:47:52.969Z,2756.00
2018-11-05T11:48:52.954Z,2860.00
2018-11-05T11:49:52.938Z,2924.00
2018-11-05T11:50:53.134Z,2908.00
2018-11-05T11:51:52.906Z,2788.00
2018-11-05T11:52:52.978Z,2628.00
2018-11-05T11:53:52.873Z,2496.00
2018-11-05T11:54:52.858Z,2412.00
2018-11-05T11:55:52.839Z,2380.00
2018-11-05T11:56:52.824Z,2384.00
2018-11-05T11:57:52.812Z,2400.00
2018-11-05T11:58:52.816Z,2496.00
2018-11-05T11:59:52.794Z,2440.00
2018-11-05T12:00:53.364Z,2324.00
2018-11-05T12:01:52.990Z,2184.00
2018-11-05T12:02:53.342Z,2164.00
2018-11-05T12:03:52.734Z,2224.00
2018-11-05T12:04:52.757Z,2284.00
2018-11-05T12:05:52.685Z,2352.00
2018-11-05T12:06:52.662Z,2420.00
2018-11-05T12:07:52.648Z,2520.00
2018-11-05T12:08:52.632Z,2612.00
2018-11-05T12:09:52.613Z,2744.00
2018-11-05T12:10:52.605Z,2928.00
2018-11-05T12:11:52.593Z,3084.00
2018-11-05T12:12:52.566Z,3304.00
2018-11-05T12:13:52.559Z,3368.00
2018-11-05T12:14:52.784Z,3404.00
2018-11-05T12:15:52.520Z,3532.00
2018-11-05T12:16:52.504Z,3660.00
2018-11-05T12:17:52.488Z,3628.00
2018-11-05T12:18:52.474Z,3616.00
2018-11-05T12:19:52.457Z,3656.00
2018-11-05T12:20:52.444Z,3620.00
2018-11-05T12:21:52.429Z,3712.00
2018-11-05T12:22:52.412Z,3704.00
2018-11-05T12:23:52.394Z,3740.00
2018-11-05T12:24:52.391Z,3664.00
2018-11-05T12:25:52.362Z,3644.00
2018-11-05T12:26:52.345Z,3808.00
2018-11-05T12:27:52.332Z,4172.00
2018-11-05T12:28:52.318Z,4868.00
2018-11-05T12:29:52.308Z,5192.00
2018-11-05T12:30:52.289Z,3676.00
2018-11-05T12:31:52.269Z,3492.00
2018-11-05T12:32:52.252Z,3408.00
2018-11-05T12:33:52.236Z,3324.00
2018-11-05T12:34:52.220Z,3248.00
2018-11-05T12:35:52.206Z,3380.00
2018-11-05T12:36:52.196Z,3520.00
2018-11-05T12:37:52.178Z,2828.00
2018-11-05T12:38:52.257Z,2700.00
2018-11-05T12:39:52.146Z,2660.00
2018-11-05T12:40:52.131Z,2716.00
2018-11-05T12:41:52.115Z,2716.00
2018-11-05T12:42:52.098Z,2680.00
2018-11-05T12:43:52.086Z,2656.00